createdAt,value
2018-07-13T00:01:08.627Z,11.33
2018-07-13T00:03:37.390Z,11.47
2018-07-13T00:06:06.178Z,11.23
2018-07-13T00:08:34.938Z,11.03
2018-07-13T00:11:03.622Z,11.73
2018-07-13T00:13:33.890Z,11.43
2018-07-13T00:16:03.986Z,11.40
2018-07-13T00:18:32.674Z,11.03
2018-07-13T00:21:01.487Z,11.43
2018-07-13T00:23:30.241Z,11.53
2018-07-13T00:25:59.039Z,11.20
2018-07-13T00:28:27.688Z,10.70
2018-07-13T00:30:56.379Z,10.90
2018-07-13T00:33:25.112Z,10.43
2018-07-13T00:35:53.830Z,10.93
2018-07-13T00:38:22.577Z,11.53
2018-07-13T00:40:51.277Z,10.27
2018-07-13T00:43:20.035Z,11.40
2018-07-13T00:45:48.748Z,10.60
2018-07-13T00:48:17.484Z,11.37
2018-07-13T00:50:46.227Z,11.27
2018-07-13T00:53:14.891Z,11.60
2018-07-13T00:55:43.722Z,10.80
2018-07-13T00:58:12.439Z,11.03
2018-07-13T01:00:41.170Z,10.90
2018-07-13T01:03:09.951Z,11.57
2018-07-13T01:05:38.626Z,11.47
2018-07-13T01:08:07.363Z,10.90
2018-07-13T01:10:36.096Z,10.97
2018-07-13T01:13:04.779Z,10.63
2018-07-13T01:15:33.501Z,11.17
2018-07-13T01:18:02.318Z,12.47
2018-07-13T01:20:31.183Z,12.17
2018-07-13T01:22:59.858Z,12.20
2018-07-13T01:25:28.549Z,11.33
2018-07-13T01:27:57.276Z,39.37
2018-07-13T01:30:26.003Z,27.37
2018-07-13T01:32:54.706Z,13.53
2018-07-13T01:35:23.374Z,15.33
2018-07-13T01:37:52.180Z,11.83
2018-07-13T01:40:20.886Z,11.70
2018-07-13T01:42:49.815Z,11.77
2018-07-13T01:45:18.569Z,12.23
2018-07-13T01:47:47.271Z,12.10
2018-07-13T01:50:16.077Z,12.93
2018-07-13T01:52:45.062Z,12.33
2018-07-13T01:55:13.787Z,11.90
2018-07-13T01:57:42.582Z,13.00
2018-07-13T02:00:11.361Z,12.60
2018-07-13T02:02:40.092Z,12.20
2018-07-13T02:05:08.780Z,12.80
2018-07-13T02:07:37.483Z,12.63
2018-07-13T02:10:06.245Z,13.07
2018-07-13T02:12:34.983Z,13.30
2018-07-13T02:15:03.706Z,12.77
2018-07-13T02:17:32.411Z,13.83
2018-07-13T02:20:01.281Z,13.83
2018-07-13T02:22:29.947Z,13.27
2018-07-13T02:24:58.673Z,14.03
2018-07-13T02:27:27.381Z,14.37
2018-07-13T02:29:56.066Z,15.00
2018-07-13T02:32:24.739Z,14.50
2018-07-13T02:34:52.356Z,14.10
2018-07-13T02:37:21.075Z,13.83
2018-07-13T02:39:49.747Z,14.33
2018-07-13T02:42:18.431Z,13.73
2018-07-13T02:44:47.178Z,13.57
2018-07-13T02:47:16.114Z,14.30
2018-07-13T02:49:44.819Z,13.10
2018-07-13T02:52:13.466Z,13.43
2018-07-13T02:54:42.227Z,14.43
2018-07-13T02:57:10.975Z,13.53
2018-07-13T02:59:39.687Z,13.43
2018-07-13T03:02:08.355Z,14.10
2018-07-13T03:04:37.088Z,14.13
2018-07-13T03:07:05.830Z,14.23
2018-07-13T03:09:35.222Z,13.60
2018-07-13T03:12:03.916Z,13.47
2018-07-13T03:14:32.651Z,13.67
2018-07-13T03:17:01.415Z,15.33
2018-07-13T03:19:31.447Z,14.40
2018-07-13T03:22:00.725Z,13.93
2018-07-13T03:24:31.539Z,12.67
2018-07-13T03:27:01.010Z,13.53
2018-07-13T03:29:31.938Z,14.23
2018-07-13T03:32:00.638Z,13.67
2018-07-13T03:34:29.315Z,15.00
2018-07-13T03:36:57.977Z,14.37
2018-07-13T03:39:26.697Z,15.30
2018-07-13T03:41:55.419Z,15.43
2018-07-13T03:44:24.089Z,16.67
2018-07-13T03:46:52.808Z,16.90
2018-07-13T03:49:21.513Z,16.23
2018-07-13T03:51:50.228Z,18.47
2018-07-13T03:54:20.189Z,17.47
2018-07-13T03:56:48.954Z,19.47
2018-07-13T03:59:17.793Z,17.93
2018-07-13T04:01:46.503Z,17.47
2018-07-13T04:04:15.226Z,19.20
2018-07-13T04:06:43.969Z,19.07
2018-07-13T04:09:12.788Z,17.60
2018-07-13T04:11:41.594Z,18.93
2018-07-13T04:14:11.148Z,19.40
2018-07-13T04:16:40.062Z,18.33
2018-07-13T04:19:08.752Z,19.37
2018-07-13T04:21:37.600Z,19.13
2018-07-13T04:24:06.574Z,19.43
2018-07-13T04:26:36.176Z,20.67
2018-07-13T04:29:05.302Z,20.27
2018-07-13T04:31:34.082Z,19.97
2018-07-13T04:34:02.894Z,22.53
2018-07-13T04:36:31.623Z,22.40
2018-07-13T04:39:00.331Z,19.97
2018-07-13T04:41:29.136Z,20.43
2018-07-13T04:43:57.974Z,19.87
2018-07-13T04:46:26.871Z,21.20
2018-07-13T04:48:55.584Z,19.83
2018-07-13T04:51:24.401Z,19.73
2018-07-13T04:53:53.174Z,20.63
2018-07-13T04:56:22.238Z,20.07
2018-07-13T04:58:51.366Z,20.57
2018-07-13T05:01:20.156Z,20.27
2018-07-13T05:03:48.958Z,22.00
2018-07-13T05:06:17.936Z,21.60
2018-07-13T05:08:46.738Z,21.23
2018-07-13T05:11:15.507Z,21.13
2018-07-13T05:13:44.294Z,20.30
2018-07-13T05:16:13.174Z,20.30
2018-07-13T05:18:41.895Z,18.90
2018-07-13T05:21:10.699Z,18.90
2018-07-13T05:23:39.545Z,20.50
2018-07-13T05:26:08.914Z,19.87
2018-07-13T05:28:37.710Z,22.20
2018-07-13T05:31:06.476Z,20.97
2018-07-13T05:33:35.338Z,24.67
2018-07-13T05:36:04.236Z,24.53
2018-07-13T05:38:33.943Z,22.90
2018-07-13T05:41:02.828Z,24.87
2018-07-13T05:43:31.694Z,23.03
2018-07-13T05:46:00.497Z,23.87
2018-07-13T05:48:30.148Z,27.53
2018-07-13T05:50:58.949Z,25.87
2018-07-13T05:53:27.850Z,26.23
2018-07-13T05:55:56.646Z,28.97
2018-07-13T05:58:25.477Z,28.37
2018-07-13T06:00:54.307Z,29.23
2018-07-13T06:03:23.146Z,29.93
2018-07-13T06:05:52.030Z,29.63
2018-07-13T06:08:20.858Z,30.17
2018-07-13T06:10:49.663Z,29.53
2018-07-13T06:13:18.539Z,29.27
2018-07-13T06:15:47.378Z,28.53
2018-07-13T06:18:16.220Z,28.90
2018-07-13T06:20:45.064Z,29.47
2018-07-13T06:23:13.757Z,29.47
2018-07-13T06:25:42.502Z,27.80
2018-07-13T06:28:11.317Z,29.30
2018-07-13T06:30:40.146Z,27.90
2018-07-13T06:33:09.164Z,28.13
2018-07-13T06:35:44.701Z,27.93
2018-07-13T06:38:13.484Z,29.47
2018-07-13T06:40:42.330Z,26.20
2018-07-13T06:43:11.103Z,27.60
2018-07-13T06:45:41.331Z,27.50
2018-07-13T06:48:10.842Z,29.37
2018-07-13T06:50:39.733Z,28.57
2018-07-13T06:53:09.881Z,28.37
2018-07-13T06:55:38.657Z,27.30
2018-07-13T06:58:18.495Z,29.17
2018-07-13T07:01:04.906Z,28.57
2018-07-13T07:03:37.215Z,26.93
2018-07-13T07:06:10.781Z,26.77
2018-07-13T07:08:41.176Z,27.93
2018-07-13T07:11:10.110Z,29.20
2018-07-13T07:13:40.190Z,27.60
2018-07-13T07:16:08.982Z,26.47
2018-07-13T07:18:37.847Z,28.07
2018-07-13T07:21:06.831Z,27.57
2018-07-13T07:23:36.108Z,27.57
2018-07-13T07:26:05.481Z,26.20
2018-07-13T07:28:34.323Z,26.27
2018-07-13T07:31:04.012Z,25.87
2018-07-13T07:33:32.812Z,23.93
2018-07-13T07:36:01.572Z,24.50
2018-07-13T07:38:30.365Z,24.60
2018-07-13T07:40:59.202Z,24.53
2018-07-13T07:43:28.005Z,24.93
2018-07-13T07:45:56.751Z,23.70
2018-07-13T07:48:25.558Z,24.20
2018-07-13T07:50:54.249Z,24.27
2018-07-13T07:53:22.990Z,24.00
2018-07-13T07:55:51.678Z,22.80
2018-07-13T07:58:20.424Z,22.93
2018-07-13T08:00:49.175Z,23.00
2018-07-13T08:03:17.920Z,24.37
2018-07-13T08:05:46.889Z,22.77
2018-07-13T08:08:15.636Z,23.50
2018-07-13T08:10:44.339Z,24.20
2018-07-13T08:13:13.075Z,21.95
2018-07-13T08:15:41.897Z,23.75
2018-07-13T08:18:10.677Z,24.25
2018-07-13T08:20:44.536Z,22.75
2018-07-13T08:23:13.456Z,22.37
2018-07-13T08:25:44.551Z,20.72
2018-07-13T08:28:13.461Z,20.92
2018-07-13T08:30:44.641Z,20.55
2018-07-13T08:33:13.344Z,22.67
2018-07-13T08:35:42.086Z,22.87
2018-07-13T08:38:10.849Z,23.50
2018-07-13T08:40:39.680Z,22.55
2018-07-13T08:43:08.503Z,23.90
2018-07-13T08:45:37.394Z,23.40
2018-07-13T08:48:06.208Z,22.80
2018-07-13T08:50:35.099Z,21.85
2018-07-13T08:53:03.998Z,21.20
2018-07-13T08:55:32.889Z,20.40
2018-07-13T08:58:02.043Z,20.57
2018-07-13T09:00:30.831Z,20.97
2018-07-13T09:02:59.619Z,19.60
2018-07-13T09:05:28.449Z,19.77
2018-07-13T09:07:57.681Z,18.90
2018-07-13T09:10:26.489Z,20.40
2018-07-13T09:12:55.334Z,20.10
2018-07-13T09:15:24.113Z,19.23
2018-07-13T09:17:52.917Z,19.42
2018-07-13T09:20:21.848Z,18.30
2018-07-13T09:22:50.637Z,18.45
2018-07-13T09:25:19.418Z,17.50
2018-07-13T09:27:48.147Z,16.48
2018-07-13T09:30:16.902Z,18.10
2018-07-13T09:32:45.700Z,18.60
2018-07-13T09:35:14.512Z,16.90
2018-07-13T09:37:43.325Z,15.90
2018-07-13T09:40:12.086Z,17.35
2018-07-13T09:42:40.866Z,16.87
2018-07-13T09:45:09.926Z,17.77
2018-07-13T09:47:38.774Z,17.32
2018-07-13T09:50:07.574Z,16.65
2018-07-13T09:52:36.315Z,17.05
2018-07-13T09:55:05.215Z,14.47
2018-07-13T09:57:33.974Z,15.48
2018-07-13T10:00:02.724Z,14.73
2018-07-13T10:02:31.540Z,14.90
2018-07-13T10:05:00.390Z,15.83
2018-07-13T10:07:29.260Z,15.93
2018-07-13T10:09:58.078Z,11.78
2018-07-13T10:12:26.929Z,12.40
2018-07-13T10:14:55.714Z,13.40
2018-07-13T10:17:24.560Z,13.53
2018-07-13T10:19:53.387Z,11.93
2018-07-13T10:22:27.055Z,11.80
2018-07-13T10:24:57.644Z,12.23
2018-07-13T10:27:30.060Z,12.18
2018-07-13T10:29:59.268Z,12.50
2018-07-13T10:32:28.090Z,12.70
2018-07-13T10:34:56.861Z,13.20
2018-07-13T10:37:27.401Z,12.07
2018-07-13T10:39:56.236Z,12.43
2018-07-13T10:42:25.818Z,11.57
2018-07-13T10:44:54.591Z,12.80
2018-07-13T10:47:23.620Z,12.98
2018-07-13T10:49:52.358Z,12.53
2018-07-13T10:52:21.172Z,12.33
2018-07-13T10:54:49.932Z,12.35
2018-07-13T10:57:18.714Z,11.28
2018-07-13T10:59:47.486Z,11.10
2018-07-13T11:02:16.279Z,11.68
2018-07-13T11:04:45.699Z,11.95
2018-07-13T11:07:14.408Z,12.20
2018-07-13T11:09:46.080Z,11.22
2018-07-13T11:12:14.856Z,11.70
2018-07-13T11:14:43.647Z,10.68
2018-07-13T11:17:13.122Z,10.68
2018-07-13T11:19:41.939Z,11.70
2018-07-13T11:22:10.695Z,11.33
2018-07-13T11:24:39.415Z,12.33
2018-07-13T11:27:08.227Z,11.85
2018-07-13T11:29:37.064Z,11.40
2018-07-13T11:32:05.964Z,10.85
2018-07-13T11:34:34.750Z,11.38
2018-07-13T11:37:03.608Z,9.35
2018-07-13T11:39:32.237Z,9.28
2018-07-13T11:42:00.959Z,9.73
2018-07-13T11:44:29.713Z,8.83
2018-07-13T11:46:58.503Z,10.98
2018-07-13T11:49:27.258Z,12.47
2018-07-13T11:51:56.080Z,13.22
2018-07-13T11:54:24.797Z,13.93
2018-07-13T11:56:53.540Z,14.63
2018-07-13T11:59:22.285Z,13.78
2018-07-13T12:01:51.714Z,13.45
2018-07-13T12:04:20.404Z,14.07
2018-07-13T12:06:49.215Z,13.93
2018-07-13T12:09:17.929Z,15.05
2018-07-13T12:11:46.691Z,14.20
2018-07-13T12:14:15.381Z,14.03
2018-07-13T12:16:44.204Z,13.90
2018-07-13T12:19:12.935Z,14.90
2018-07-13T12:21:41.654Z,14.13
2018-07-13T12:24:10.346Z,13.40
2018-07-13T12:26:39.144Z,12.55
2018-07-13T12:29:07.870Z,11.57
2018-07-13T12:31:36.886Z,11.80
2018-07-13T12:34:05.632Z,12.63
2018-07-13T12:36:34.334Z,12.10
2018-07-13T12:39:03.164Z,11.70
2018-07-13T12:41:31.919Z,11.90
2018-07-13T12:44:00.639Z,13.32
2018-07-13T12:46:29.412Z,14.03
2018-07-13T12:48:58.121Z,13.88
2018-07-13T12:51:26.936Z,13.40
2018-07-13T12:53:55.778Z,14.47
2018-07-13T12:56:24.652Z,14.55
2018-07-13T12:58:53.459Z,14.03
2018-07-13T13:01:22.245Z,13.22
2018-07-13T13:03:50.935Z,12.18
2018-07-13T13:06:19.721Z,13.20
2018-07-13T13:08:48.390Z,11.43
2018-07-13T13:11:17.420Z,11.85
2018-07-13T13:13:46.460Z,12.30
2018-07-13T13:16:15.172Z,12.30
2018-07-13T13:18:43.903Z,11.35
2018-07-13T13:21:12.624Z,11.33
2018-07-13T13:23:41.392Z,11.00
2018-07-13T13:26:10.113Z,11.53
2018-07-13T13:28:38.803Z,12.65
2018-07-13T13:31:07.578Z,12.40
2018-07-13T13:33:36.329Z,11.78
2018-07-13T13:36:05.096Z,10.25
2018-07-13T13:38:33.867Z,11.00
2018-07-13T13:41:02.651Z,12.98
2018-07-13T13:43:31.350Z,11.63
2018-07-13T13:46:00.123Z,13.58
2018-07-13T13:48:28.822Z,13.05
2018-07-13T13:50:57.505Z,11.78
2018-07-13T13:53:26.322Z,11.97
2018-07-13T13:55:55.044Z,13.88
2018-07-13T13:58:23.788Z,14.50
2018-07-13T14:00:52.519Z,13.28
2018-07-13T14:03:21.324Z,14.47
2018-07-13T14:05:50.099Z,15.03
2018-07-13T14:08:19.101Z,18.27
2018-07-13T14:10:47.934Z,19.40
2018-07-13T14:13:16.646Z,19.75
2018-07-13T14:15:45.457Z,17.52
2018-07-13T14:18:14.192Z,18.45
2018-07-13T14:20:42.942Z,18.42
2018-07-13T14:23:11.672Z,19.65
2018-07-13T14:25:40.452Z,20.02
2018-07-13T14:28:09.265Z,20.10
2018-07-13T14:30:37.984Z,18.15
2018-07-13T14:33:06.790Z,17.35
2018-07-13T14:35:35.448Z,18.70
2018-07-13T14:38:09.133Z,19.40
2018-07-13T14:40:37.974Z,18.67
2018-07-13T14:43:06.872Z,19.30
2018-07-13T14:45:35.695Z,21.15
2018-07-13T14:48:04.480Z,20.20
2018-07-13T14:50:33.254Z,21.12
2018-07-13T14:53:01.998Z,21.35
2018-07-13T14:55:30.725Z,19.42
2018-07-13T14:57:59.836Z,22.07
2018-07-13T15:00:28.641Z,21.62
2018-07-13T15:02:57.499Z,21.57
2018-07-13T15:05:26.330Z,21.40
2018-07-13T15:07:57.867Z,19.98
2018-07-13T15:10:26.766Z,18.52
2018-07-13T15:12:55.459Z,18.35
2018-07-13T15:15:24.279Z,13.40
2018-07-13T15:17:53.047Z,12.73
2018-07-13T15:20:21.753Z,14.60
2018-07-13T15:22:50.442Z,12.63
2018-07-13T15:25:19.168Z,11.30
2018-07-13T15:27:47.903Z,12.10
2018-07-13T15:30:17.960Z,10.45
2018-07-13T15:32:46.690Z,11.38
2018-07-13T15:35:15.442Z,12.50
2018-07-13T15:37:44.190Z,12.73
2018-07-13T15:40:12.913Z,10.93
2018-07-13T15:42:41.636Z,10.98
2018-07-13T15:45:10.422Z,11.00
2018-07-13T15:47:39.143Z,12.45
2018-07-13T15:50:08.049Z,12.82
2018-07-13T15:52:36.790Z,12.90
2018-07-13T15:55:06.468Z,13.08
2018-07-13T15:57:35.172Z,14.28
2018-07-13T16:00:05.860Z,14.15
2018-07-13T16:02:34.604Z,14.70
2018-07-13T16:05:03.461Z,14.33
2018-07-13T16:07:32.313Z,13.80
2018-07-13T16:10:01.040Z,13.60
2018-07-13T16:12:29.901Z,11.97
2018-07-13T16:14:58.684Z,13.45
2018-07-13T16:17:27.443Z,13.88
2018-07-13T16:19:57.094Z,14.45
2018-07-13T16:22:25.860Z,14.87
2018-07-13T16:24:54.719Z,13.98
2018-07-13T16:27:23.465Z,13.80
2018-07-13T16:29:52.222Z,12.98
2018-07-13T16:32:20.985Z,14.90
2018-07-13T16:34:49.737Z,15.40
2018-07-13T16:37:18.475Z,15.93
2018-07-13T16:39:47.344Z,15.48
2018-07-13T16:42:16.113Z,14.35
2018-07-13T16:44:44.817Z,16.12
2018-07-13T16:47:13.654Z,14.55
2018-07-13T16:49:42.415Z,14.75
2018-07-13T16:52:11.091Z,14.07
2018-07-13T16:54:39.856Z,15.68
2018-07-13T16:57:09.224Z,13.98
2018-07-13T16:59:38.068Z,14.05
2018-07-13T17:02:06.851Z,14.33
2018-07-13T17:04:35.591Z,14.25
2018-07-13T17:07:04.553Z,14.93
2018-07-13T17:09:33.287Z,16.27
2018-07-13T17:12:02.103Z,15.95
2018-07-13T17:14:30.935Z,17.10
2018-07-13T17:16:59.746Z,16.45
2018-07-13T17:19:28.608Z,19.48
2018-07-13T17:21:57.534Z,16.23
2018-07-13T17:24:26.217Z,17.05
2018-07-13T17:26:54.980Z,16.87
2018-07-13T17:29:23.715Z,16.85
2018-07-13T17:31:52.420Z,17.92
2018-07-13T17:34:21.260Z,16.57
2018-07-13T17:36:49.977Z,17.90
2018-07-13T17:39:18.672Z,28.07
2018-07-13T17:41:47.771Z,17.52
2018-07-13T17:44:16.844Z,16.97
2018-07-13T17:46:48.238Z,16.73
2018-07-13T17:49:17.277Z,17.42
2018-07-13T17:51:47.027Z,18.57
2018-07-13T17:54:18.610Z,18.02
2018-07-13T17:56:47.497Z,18.15
2018-07-13T17:59:16.187Z,20.30
2018-07-13T18:01:44.912Z,40.20
2018-07-13T18:04:13.747Z,20.70
2018-07-13T18:06:42.466Z,21.05
2018-07-13T18:09:11.217Z,25.17
2018-07-13T18:11:40.020Z,23.77
2018-07-13T18:14:09.039Z,20.27
2018-07-13T18:16:37.763Z,18.83
2018-07-13T18:19:06.630Z,18.60
2018-07-13T18:21:35.486Z,19.10
2018-07-13T18:24:04.237Z,20.50
2018-07-13T18:26:33.084Z,19.27
2018-07-13T18:29:01.840Z,20.10
2018-07-13T18:31:30.696Z,19.95
2018-07-13T18:33:59.446Z,19.27
2018-07-13T18:36:28.485Z,19.70
2018-07-13T18:39:02.195Z,19.42
2018-07-13T18:41:31.969Z,19.73
2018-07-13T18:44:00.742Z,20.13
2018-07-13T18:46:29.488Z,19.40
2018-07-13T18:48:58.375Z,19.10
2018-07-13T18:51:27.160Z,20.80
2018-07-13T18:53:55.861Z,19.27
2018-07-13T18:56:25.349Z,18.43
2018-07-13T18:58:54.110Z,18.67
2018-07-13T19:01:22.885Z,19.80
2018-07-13T19:03:51.670Z,18.23
2018-07-13T19:06:20.514Z,19.23
2018-07-13T19:08:49.533Z,20.30
2018-07-13T19:11:19.601Z,20.90
2018-07-13T19:13:48.395Z,20.73
2018-07-13T19:16:17.507Z,25.43
2018-07-13T19:18:46.725Z,21.80
2018-07-13T19:21:15.433Z,21.53
2018-07-13T19:23:44.138Z,20.30
2018-07-13T19:26:13.047Z,20.37
2018-07-13T19:28:41.828Z,20.70
2018-07-13T19:31:10.624Z,21.03
2018-07-13T19:33:39.616Z,23.07
2018-07-13T19:36:08.505Z,23.80
2018-07-13T19:38:37.248Z,24.50
2018-07-13T19:41:06.059Z,24.60
2018-07-13T19:43:34.909Z,23.53
2018-07-13T19:46:03.715Z,24.50
2018-07-13T19:48:33.078Z,25.17
2018-07-13T19:51:01.749Z,25.87
2018-07-13T19:53:30.559Z,25.07
2018-07-13T19:55:59.295Z,22.70
2018-07-13T19:58:28.012Z,23.23
2018-07-13T20:00:56.796Z,21.73
2018-07-13T20:03:25.858Z,23.40
2018-07-13T20:05:54.802Z,22.93
2018-07-13T20:08:23.574Z,23.47
2018-07-13T20:10:52.306Z,23.50
2018-07-13T20:13:21.220Z,24.50
2018-07-13T20:15:49.948Z,23.90
2018-07-13T20:18:20.370Z,25.73
2018-07-13T20:20:49.970Z,23.03
2018-07-13T20:23:18.876Z,24.17
2018-07-13T20:25:47.603Z,22.97
2018-07-13T20:28:16.326Z,23.67
2018-07-13T20:30:45.158Z,25.50
2018-07-13T20:33:13.870Z,23.17
2018-07-13T20:35:42.780Z,22.43
2018-07-13T20:38:11.507Z,20.57
2018-07-13T20:40:40.309Z,23.07
2018-07-13T20:43:09.030Z,22.80
2018-07-13T20:45:37.744Z,21.97
2018-07-13T20:48:06.501Z,22.87
2018-07-13T20:50:35.370Z,18.20
2018-07-13T20:53:04.077Z,19.40
2018-07-13T20:55:32.856Z,15.50
2018-07-13T20:58:01.552Z,15.80
2018-07-13T21:00:30.510Z,16.00
2018-07-13T21:02:59.263Z,17.80
2018-07-13T21:05:28.007Z,15.93
2018-07-13T21:07:56.769Z,16.27
2018-07-13T21:10:25.498Z,15.97
2018-07-13T21:12:54.166Z,14.77
2018-07-13T21:15:22.969Z,15.33
2018-07-13T21:17:51.758Z,15.70
2018-07-13T21:20:20.632Z,14.50
2018-07-13T21:22:49.188Z,15.43
2018-07-13T21:25:17.898Z,15.07
2018-07-13T21:27:46.634Z,14.07
2018-07-13T21:30:15.303Z,14.27
2018-07-13T21:32:44.112Z,14.07
2018-07-13T21:35:13.267Z,14.50
2018-07-13T21:37:42.071Z,14.37
2018-07-13T21:40:10.788Z,15.63
2018-07-13T21:42:39.545Z,15.10
2018-07-13T21:45:09.100Z,15.30
2018-07-13T21:47:37.838Z,13.67
2018-07-13T21:50:07.287Z,13.80
2018-07-13T21:52:36.107Z,14.40
2018-07-13T21:55:04.919Z,13.23
2018-07-13T21:57:33.641Z,13.87
2018-07-13T22:00:02.392Z,14.33
2018-07-13T22:02:31.201Z,14.57
2018-07-13T22:05:00.794Z,13.47
2018-07-13T22:07:29.756Z,13.63
2018-07-13T22:09:58.522Z,13.97
2018-07-13T22:12:27.262Z,13.33
2018-07-13T22:14:56.034Z,13.97
2018-07-13T22:17:24.801Z,12.90
2018-07-13T22:19:54.591Z,13.87
2018-07-13T22:22:23.637Z,12.63
2018-07-13T22:24:52.479Z,12.63
2018-07-13T22:27:21.257Z,12.67
2018-07-13T22:29:49.969Z,11.63
2018-07-13T22:32:18.685Z,12.50
2018-07-13T22:34:47.373Z,13.37
2018-07-13T22:37:16.077Z,12.20
2018-07-13T22:39:44.833Z,11.07
2018-07-13T22:42:13.626Z,11.47
2018-07-13T22:44:42.312Z,10.60
2018-07-13T22:47:11.037Z,9.83
2018-07-13T22:49:39.708Z,10.03
2018-07-13T22:52:08.489Z,10.23
2018-07-13T22:54:37.191Z,10.53
2018-07-13T22:57:06.253Z,9.73
2018-07-13T22:59:34.963Z,9.73
2018-07-13T23:02:03.763Z,8.70
2018-07-13T23:04:32.484Z,10.13
2018-07-13T23:07:01.384Z,8.73
2018-07-13T23:09:30.063Z,8.50
2018-07-13T23:11:58.757Z,8.40
2018-07-13T23:14:27.502Z,8.93
2018-07-13T23:16:56.167Z,8.30
2018-07-13T23:19:24.799Z,8.80
2018-07-13T23:21:53.485Z,7.93
2018-07-13T23:24:22.325Z,8.80
2018-07-13T23:26:51.013Z,7.90
2018-07-13T23:29:19.755Z,7.80
2018-07-13T23:31:48.464Z,7.30
2018-07-13T23:34:17.174Z,7.40
2018-07-13T23:36:45.831Z,7.30
2018-07-13T23:39:14.505Z,6.87
2018-07-13T23:41:43.211Z,7.10
2018-07-13T23:44:12.002Z,6.70
2018-07-13T23:46:40.750Z,6.63
2018-07-13T23:49:09.425Z,6.73
2018-07-13T23:51:38.095Z,6.63
2018-07-13T23:54:06.861Z,6.00
2018-07-13T23:56:35.556Z,5.67
2018-07-13T23:59:04.373Z,6.47
